Time;durP1;ratioP1;P1;durP2;ratioP2;P2;SDS_P1;SDS_P2;PMS_P1;PMS_P2;Temp;Humidity;BMP_temperature;BMP_pressure;BME280_temperature;BME280_humidity;BME280_pressure;Samples;Min_cycle;Max_cycle;Signal;HPM_P1;HPM_P2
2022/07/11 00:00:51;;;;;;;1.77;0.40;;;;;;;-148.56;100.00;61375.16;5076494;28;21098;-31
2022/07/11 00:04:15;;;;;;;3.38;0.55;;;;;;;-148.56;100.00;61375.16;5078719;28;20059;-34
2022/07/11 00:07:38;;;;;;;1.08;0.40;;;;;;;-148.56;100.00;61375.16;5077621;28;20046;-30
2022/07/11 00:11:03;;;;;;;1.40;0.50;;;;;;;-148.56;100.00;61375.16;5081071;28;20032;-35
2022/07/11 00:14:26;;;;;;;0.98;0.60;;;;;;;-148.56;100.00;61375.16;5079271;28;20131;-32
2022/07/11 00:17:50;;;;;;;0.63;0.50;;;;;;;-148.56;100.00;61375.16;5080285;28;20034;-32
2022/07/11 00:21:14;;;;;;;0.40;0.38;;;;;;;-148.56;100.00;61375.16;5080418;28;21028;-30
2022/07/11 00:24:38;;;;;;;1.45;0.60;;;;;;;-148.56;100.00;61375.16;5081953;28;20067;-31
2022/07/11 00:28:02;;;;;;;0.90;0.60;;;;;;;-148.56;100.00;61375.16;5081403;28;20522;-31
2022/07/11 00:31:26;;;;;;;1.83;0.80;;;;;;;-148.56;100.00;61375.16;5075754;28;20086;-33
2022/07/11 00:34:51;;;;;;;0.90;0.50;;;;;;;-148.56;100.00;61375.16;5077183;28;20054;-31
2022/07/11 00:38:15;;;;;;;0.85;0.40;;;;;;;-148.56;100.00;61375.16;5080285;28;20070;-30
2022/07/11 00:41:39;;;;;;;0.30;0.30;;;;;;;-148.56;100.00;61375.16;5077661;28;20307;-31
2022/07/11 00:45:03;;;;;;;0.98;0.40;;;;;;;-148.56;100.00;61375.16;5081303;28;20029;-30
2022/07/11 00:48:27;;;;;;;1.20;0.52;;;;;;;-148.56;100.00;61375.16;5082239;28;20049;-30
2022/07/11 00:51:51;;;;;;;0.65;0.40;;;;;;;-148.56;100.00;61375.16;5077719;28;20101;-32
2022/07/11 00:55:15;;;;;;;0.85;0.43;;;;;;;-148.56;100.00;61375.16;5065991;28;20020;-30
2022/07/11 00:58:39;;;;;;;1.92;0.60;;;;;;;-148.56;100.00;61375.16;5066382;28;20031;-30
2022/07/11 01:02:04;;;;;;;8.60;0.50;;;;;;;-148.56;100.00;61375.16;5077453;28;20412;-30
2022/07/11 01:05:28;;;;;;;0.85;0.40;;;;;;;-148.56;100.00;61375.16;5075048;28;20075;-32
2022/07/11 01:08:52;;;;;;;0.68;0.30;;;;;;;-148.56;100.00;61375.16;5077278;28;20761;-33
2022/07/11 01:12:15;;;;;;;1.85;0.63;;;;;;;-148.56;100.00;61375.16;5080207;28;20106;-31
2022/07/11 01:15:48;;;;;;;2.22;0.45;;;;;;;-148.56;100.00;61375.16;5051269;28;20465;-34
2022/07/11 01:19:13;;;;;;;0.60;0.40;;;;;;;-148.56;100.00;61375.16;5083531;28;20110;-31
2022/07/11 01:22:39;;;;;;;3.03;0.50;;;;;;;-148.56;100.00;61375.16;5082085;28;20071;-32
2022/07/11 01:26:03;;;;;;;0.55;0.40;;;;;;;-148.56;100.00;61375.16;5079639;28;20035;-35
2022/07/11 01:29:27;;;;;;;0.60;0.40;;;;;;;-148.56;100.00;61375.16;5072864;28;20063;-32
2022/07/11 01:32:51;;;;;;;1.20;0.30;;;;;;;-148.56;100.00;61375.16;5077721;28;20027;-34
2022/07/11 01:36:15;;;;;;;0.90;0.40;;;;;;;-148.56;100.00;61375.16;5078735;28;20568;-31
2022/07/11 01:39:39;;;;;;;0.35;0.35;;;;;;;-148.56;100.00;61375.16;5080881;28;20035;-31
2022/07/11 01:43:03;;;;;;;0.63;0.28;;;;;;;-148.56;100.00;61375.16;5082602;28;20024;-34
2022/07/11 01:46:27;;;;;;;0.57;0.40;;;;;;;-148.56;100.00;61375.16;5076254;28;20145;-33
2022/07/11 01:49:51;;;;;;;1.88;0.50;;;;;;;-148.56;100.00;61375.16;5076787;28;20043;-31
2022/07/11 01:53:15;;;;;;;0.93;0.50;;;;;;;-148.56;100.00;61375.16;5079931;28;20032;-31
2022/07/11 01:56:39;;;;;;;3.17;0.55;;;;;;;-148.56;100.00;61375.16;5079162;28;20032;-32
2022/07/11 02:00:03;;;;;;;3.70;0.57;;;;;;;-148.56;100.00;61375.16;5078083;28;20093;-30
2022/07/11 02:03:27;;;;;;;1.50;0.52;;;;;;;-148.56;100.00;61375.16;5078756;28;20058;-31
2022/07/11 02:06:51;;;;;;;1.25;0.50;;;;;;;-148.56;100.00;61375.16;5075349;28;20223;-35
2022/07/11 02:10:15;;;;;;;2.22;0.50;;;;;;;-148.56;100.00;61375.16;5078830;28;20034;-30
2022/07/11 02:13:39;;;;;;;1.50;0.40;;;;;;;-148.56;100.00;61375.16;5078200;28;20985;-31
2022/07/11 02:17:03;;;;;;;2.40;0.40;;;;;;;-148.56;100.00;61375.16;5074553;28;20039;-33
2022/07/11 02:20:26;;;;;;;0.60;0.35;;;;;;;-148.56;100.00;61375.16;5077988;28;20118;-30
2022/07/11 02:23:50;;;;;;;1.00;0.30;;;;;;;-148.56;100.00;61375.16;5075754;28;20022;-30
2022/07/11 02:27:14;;;;;;;0.40;0.40;;;;;;;-148.56;100.00;61375.16;5075875;28;20024;-33
2022/07/11 02:30:39;;;;;;;0.40;0.30;;;;;;;-148.56;100.00;61375.16;5077063;28;20035;-31
2022/07/11 02:34:03;;;;;;;0.38;0.30;;;;;;;-148.56;100.00;61375.16;5078176;28;20032;-31
2022/07/11 02:37:27;;;;;;;1.13;0.50;;;;;;;-148.56;100.00;61375.16;5080476;28;20111;-31
2022/07/11 02:40:50;;;;;;;0.77;0.30;;;;;;;-148.56;100.00;61375.16;5073076;28;20055;-34
2022/07/11 02:44:14;;;;;;;0.25;0.25;;;;;;;-148.56;100.00;61375.16;5079360;28;20041;-31
2022/07/11 02:47:39;;;;;;;0.30;0.30;;;;;;;-148.56;100.00;61375.16;5080583;28;20155;-32
2022/07/11 02:51:04;;;;;;;0.40;0.40;;;;;;;-148.56;100.00;61375.16;5085554;28;20039;-31
2022/07/11 02:54:28;;;;;;;0.55;0.43;;;;;;;-148.56;100.00;61375.16;5084423;28;20032;-30
2022/07/11 02:57:52;;;;;;;0.32;0.30;;;;;;;-148.56;100.00;61375.16;5085495;28;20035;-34
2022/07/11 03:01:16;;;;;;;0.68;0.40;;;;;;;-148.56;100.00;61375.16;5085547;28;20806;-29
2022/07/11 03:04:41;;;;;;;0.20;0.20;;;;;;;-148.56;100.00;61375.16;5078369;28;20038;-29
2022/07/11 03:08:05;;;;;;;0.30;0.30;;;;;;;-148.56;100.00;61375.16;5082545;28;20044;-29
2022/07/11 03:11:29;;;;;;;1.35;0.30;;;;;;;-148.56;100.00;61375.16;5078328;28;20039;-30
2022/07/11 03:14:53;;;;;;;0.68;0.32;;;;;;;-148.56;100.00;61375.16;5079544;28;20110;-30
2022/07/11 03:18:17;;;;;;;0.70;0.40;;;;;;;-148.56;100.00;61375.16;5085733;28;20564;-32
2022/07/11 03:21:40;;;;;;;0.95;0.40;;;;;;;-148.56;100.00;61375.16;5086543;28;20552;-33
2022/07/11 03:25:06;;;;;;;0.95;0.40;;;;;;;-148.56;100.00;61375.16;5088476;28;20066;-33
2022/07/11 03:28:30;;;;;;;0.80;0.30;;;;;;;-148.56;100.00;61375.16;5091510;28;20042;-31
2022/07/11 03:31:54;;;;;;;0.82;0.30;;;;;;;-148.56;100.00;61375.16;5088711;28;20063;-31
2022/07/11 03:39:00;;;;;;;2.33;0.43;;;;;;;-148.56;100.00;61375.16;5085547;28;20051;-29
2022/07/11 03:42:24;;;;;;;0.80;0.40;;;;;;;-148.56;100.00;61375.16;5087870;28;20040;-30
2022/07/11 03:45:48;;;;;;;0.43;0.40;;;;;;;-148.56;100.00;61375.16;5085251;28;20051;-32
2022/07/11 03:49:12;;;;;;;0.38;0.30;;;;;;;-148.56;100.00;61375.16;5082053;28;20055;-29
2022/07/11 03:52:36;;;;;;;0.38;0.20;;;;;;;-148.56;100.00;61375.16;5080783;28;20051;-31
2022/07/11 03:56:00;;;;;;;0.20;0.20;;;;;;;-148.56;100.00;61375.16;5080738;28;20019;-31
2022/07/11 03:59:23;;;;;;;0.40;0.32;;;;;;;-148.56;100.00;61375.16;5082135;28;20063;-31
2022/07/11 04:02:47;;;;;;;0.20;0.20;;;;;;;-148.56;100.00;61375.16;5078702;28;20019;-31
2022/07/11 04:06:12;;;;;;;0.40;0.40;;;;;;;-148.56;100.00;61375.16;5077173;28;20054;-33
2022/07/11 04:09:36;;;;;;;0.88;0.30;;;;;;;-148.56;100.00;61375.16;5079266;28;20028;-33
2022/07/11 04:13:00;;;;;;;0.52;0.30;;;;;;;-148.56;100.00;61375.16;5078855;28;20343;-35
2022/07/11 04:16:23;;;;;;;0.68;0.30;;;;;;;-148.56;100.00;61375.16;5083220;28;20052;-32
2022/07/11 04:19:47;;;;;;;0.30;0.20;;;;;;;-148.56;100.00;61375.16;5078721;28;20024;-31
2022/07/11 04:23:11;;;;;;;0.30;0.30;;;;;;;-148.56;100.00;61375.16;5077548;28;20115;-30
2022/07/11 04:26:35;;;;;;;0.55;0.40;;;;;;;-148.56;100.00;61375.16;5079806;28;20067;-33
2022/07/11 04:29:59;;;;;;;0.40;0.35;;;;;;;-148.56;100.00;61375.16;5080307;28;20039;-33
2022/07/11 04:33:23;;;;;;;0.82;0.30;;;;;;;-148.56;100.00;61375.16;5079847;28;20027;-32
2022/07/11 04:36:47;;;;;;;0.65;0.30;;;;;;;-148.56;100.00;61375.16;5082065;28;20165;-31
2022/07/11 04:40:10;;;;;;;0.30;0.30;;;;;;;-148.56;100.00;61375.16;5075703;28;20081;-32
2022/07/11 04:43:36;;;;;;;1.58;0.30;;;;;;;-148.56;100.00;61375.16;5078904;28;20020;-35
2022/07/11 04:47:00;;;;;;;1.40;0.40;;;;;;;-148.56;100.00;61375.16;5077395;28;20769;-29
2022/07/11 04:50:24;;;;;;;0.60;0.30;;;;;;;-148.56;100.00;61375.16;5078891;28;20039;-32
2022/07/11 04:53:48;;;;;;;0.20;0.20;;;;;;;-148.56;100.00;61375.16;5079807;28;20137;-31
2022/07/11 04:57:12;;;;;;;0.32;0.22;;;;;;;-148.56;100.00;61375.16;5086324;28;20020;-30
2022/07/11 05:00:36;;;;;;;0.50;0.35;;;;;;;-148.56;100.00;61375.16;5081080;28;20027;-31
2022/07/11 05:04:00;;;;;;;0.90;0.35;;;;;;;-148.56;100.00;61375.16;5076631;28;20115;-31
2022/07/11 05:07:24;;;;;;;1.30;0.38;;;;;;;-148.56;100.00;61375.16;5081980;28;20027;-31
2022/07/11 05:10:48;;;;;;;0.30;0.28;;;;;;;-148.56;100.00;61375.16;5080776;28;20036;-31
2022/07/11 05:14:11;;;;;;;0.17;0.17;;;;;;;-148.56;100.00;61375.16;5082969;28;20042;-31
2022/07/11 05:17:35;;;;;;;0.43;0.20;;;;;;;-148.56;100.00;61375.16;5077083;28;20052;-34
2022/07/11 05:20:59;;;;;;;0.17;0.17;;;;;;;-148.56;100.00;61375.16;5082299;28;20039;-30
2022/07/11 05:24:23;;;;;;;0.30;0.30;;;;;;;-148.56;100.00;61375.16;5077812;28;20156;-33
2022/07/11 05:27:47;;;;;;;0.30;0.20;;;;;;;-148.56;100.00;61375.16;5077865;28;20035;-30
2022/07/11 05:31:11;;;;;;;0.32;0.22;;;;;;;-148.56;100.00;61375.16;5075520;28;20064;-30
2022/07/11 05:34:35;;;;;;;0.55;0.38;;;;;;;-148.56;100.00;61375.16;5082206;28;20470;-30
2022/07/11 05:37:59;;;;;;;0.57;0.30;;;;;;;-148.56;100.00;61375.16;5079517;28;20020;-30
2022/07/11 05:41:22;;;;;;;0.20;0.20;;;;;;;-148.56;100.00;61375.16;5075936;28;20087;-30
2022/07/11 05:44:46;;;;;;;0.50;0.28;;;;;;;-148.56;100.00;61375.16;5076805;28;20031;-29
2022/07/11 05:48:10;;;;;;;0.40;0.20;;;;;;;-148.56;100.00;61375.16;5072893;28;23287;-31
2022/07/11 05:51:34;;;;;;;0.50;0.30;;;;;;;-148.56;100.00;61375.16;5073931;28;20031;-30
2022/07/11 05:54:58;;;;;;;2.30;0.40;;;;;;;-148.56;100.00;61375.16;5077847;28;20058;-30
2022/07/11 05:58:22;;;;;;;1.10;0.57;;;;;;;-148.56;100.00;61375.16;5082189;28;20019;-30
2022/07/11 06:01:46;;;;;;;9.23;1.30;;;;;;;-148.56;100.00;61375.16;5075488;28;20042;-32
2022/07/11 06:05:11;;;;;;;5.22;1.50;;;;;;;-148.56;100.00;61375.16;5080464;28;20132;-33
2022/07/11 06:08:42;;;;;;;3.30;1.00;;;;;;;-148.56;100.00;61375.16;5077002;28;20585;-33
2022/07/11 06:12:08;;;;;;;4.72;2.00;;;;;;;-148.56;100.00;61375.16;5073298;28;20031;-32
2022/07/11 06:15:32;;;;;;;7.75;2.83;;;;;;;-148.56;100.00;61375.16;5076888;28;20039;-31
2022/07/11 06:18:56;;;;;;;6.45;2.53;;;;;;;-148.56;100.00;61375.16;5086857;28;20128;-32
2022/07/11 06:22:20;;;;;;;9.40;3.13;;;;;;;-148.56;100.00;61375.16;5087909;28;20028;-30
2022/07/11 06:25:44;;;;;;;11.68;3.42;;;;;;;-148.56;100.00;61375.16;5083712;28;20073;-32
2022/07/11 06:29:08;;;;;;;8.25;3.10;;;;;;;-148.56;100.00;61375.16;5087405;28;20059;-31
2022/07/11 06:32:32;;;;;;;11.07;3.50;;;;;;;-148.56;100.00;61375.16;5085797;28;20032;-33
2022/07/11 06:35:55;;;;;;;9.23;3.83;;;;;;;-148.56;100.00;61375.16;5087296;28;20655;-33
2022/07/11 06:39:19;;;;;;;5.97;2.17;;;;;;;-148.56;100.00;61375.16;5086591;28;20035;-32
2022/07/11 06:42:43;;;;;;;9.57;2.47;;;;;;;-148.56;100.00;61375.16;5089830;28;20589;-36
2022/07/11 06:46:07;;;;;;;10.30;3.42;;;;;;;-148.56;100.00;61375.16;5080457;28;20150;-33
2022/07/11 06:49:31;;;;;;;9.65;3.42;;;;;;;-148.56;100.00;61375.16;5076838;28;20032;-34
2022/07/11 06:52:55;;;;;;;9.63;3.25;;;;;;;-148.56;100.00;61375.16;5079906;28;20115;-31
2022/07/11 06:56:19;;;;;;;11.80;3.17;;;;;;;-148.56;100.00;61375.16;5086681;28;20027;-30
2022/07/11 06:59:43;;;;;;;9.30;3.35;;;;;;;-148.56;100.00;61375.16;5074741;28;20035;-32
2022/07/11 07:03:08;;;;;;;5.60;2.60;;;;;;;-148.56;100.00;61375.16;5076665;28;20096;-31
2022/07/11 07:06:32;;;;;;;7.32;2.90;;;;;;;-148.56;100.00;61375.16;5079270;28;20170;-32
2022/07/11 07:09:56;;;;;;;16.45;2.60;;;;;;;-148.56;100.00;61375.16;5079187;28;20042;-30
2022/07/11 07:13:23;;;;;;;7.40;2.35;;;;;;;-148.56;100.00;61375.16;5077858;28;20707;-36
2022/07/11 07:16:47;;;;;;;9.25;2.70;;;;;;;-148.56;100.00;61375.16;5078283;28;20032;-32
2022/07/11 07:20:12;;;;;;;9.55;2.40;;;;;;;-148.56;100.00;61375.16;5081283;28;20059;-30
2022/07/11 07:23:36;;;;;;;7.68;2.55;;;;;;;-148.56;100.00;61375.16;5084612;28;20027;-36
2022/07/11 07:27:00;;;;;;;8.90;2.25;;;;;;;-148.56;100.00;61375.16;5080938;28;20059;-31
2022/07/11 07:30:25;;;;;;;5.93;1.90;;;;;;;-148.56;100.00;61375.16;5077919;28;20412;-32
2022/07/11 07:33:49;;;;;;;10.38;2.60;;;;;;;-148.56;100.00;61375.16;5079574;28;20532;-28
2022/07/11 07:37:14;;;;;;;6.75;2.10;;;;;;;-148.56;100.00;61375.16;5079235;28;20562;-30
2022/07/11 07:40:38;;;;;;;3.22;1.50;;;;;;;-148.56;100.00;61375.16;5088686;28;20571;-31
2022/07/11 07:44:02;;;;;;;3.83;1.60;;;;;;;-148.56;100.00;61375.16;5083839;28;20032;-31
2022/07/11 07:47:27;;;;;;;3.13;1.55;;;;;;;-148.56;100.00;61375.16;5077030;28;20057;-33
2022/07/11 07:50:53;;;;;;;4.18;1.73;;;;;;;-148.56;100.00;61375.16;5075086;28;20020;-32
2022/07/11 07:54:18;;;;;;;3.92;1.80;;;;;;;-148.56;100.00;61375.16;5078474;28;20042;-34
2022/07/11 07:57:42;;;;;;;9.98;2.40;;;;;;;-148.56;100.00;61375.16;5077986;28;20035;-33
2022/07/11 08:04:51;;;;;;;3.58;0.70;;;;;;;-148.56;100.00;61375.16;5073957;28;20551;-33
2022/07/11 08:08:15;;;;;;;1.38;0.63;;;;;;;-148.56;100.00;61375.16;5073853;28;20039;-37
2022/07/11 08:11:39;;;;;;;1.85;0.70;;;;;;;-148.56;100.00;61375.16;5073864;28;20031;-32
2022/07/11 08:15:03;;;;;;;1.80;0.60;;;;;;;-148.56;100.00;61375.16;5077583;28;20039;-32
2022/07/11 08:18:27;;;;;;;1.38;0.50;;;;;;;-148.56;100.00;61375.16;5078068;28;20036;-31
2022/07/11 08:21:54;;;;;;;111.18;51.70;;;;;;;-148.56;100.00;61375.16;5076892;28;20118;-30
2022/07/11 08:25:18;;;;;;;34.08;15.35;;;;;;;-148.56;100.00;61375.16;5078423;28;20035;-32
2022/07/11 08:28:42;;;;;;;52.15;12.95;;;;;;;-148.56;100.00;61375.16;5076587;28;20058;-33
2022/07/11 08:32:06;;;;;;;33.13;13.85;;;;;;;-148.56;100.00;61375.16;5075426;28;20059;-32
2022/07/11 08:35:30;;;;;;;41.50;16.85;;;;;;;-148.56;100.00;61375.16;5080943;28;20585;-31
2022/07/11 08:38:54;;;;;;;35.88;14.05;;;;;;;-148.56;100.00;61375.16;5079671;28;20063;-30
2022/07/11 08:42:20;;;;;;;34.65;13.40;;;;;;;-148.56;100.00;61375.16;5076485;28;22136;-33
2022/07/11 08:45:44;;;;;;;31.50;11.32;;;;;;;-148.56;100.00;61375.16;5063975;28;20027;-34
2022/07/11 08:49:08;;;;;;;32.78;10.48;;;;;;;-148.56;100.00;61375.16;5070401;28;20560;-32
2022/07/11 08:52:34;;;;;;;25.52;9.82;;;;;;;-148.56;100.00;61375.16;5061708;28;20159;-32
2022/07/11 08:55:58;;;;;;;26.02;9.85;;;;;;;-148.56;100.00;61375.16;5079996;28;20058;-28
2022/07/11 08:59:22;;;;;;;23.08;9.93;;;;;;;-148.56;100.00;61375.16;5084550;28;20119;-34
2022/07/11 09:02:46;;;;;;;25.33;9.85;;;;;;;-148.56;100.00;61375.16;5082086;28;20547;-29
2022/07/11 09:06:11;;;;;;;24.52;9.57;;;;;;;-148.56;100.00;61375.16;5088245;28;20516;-31
2022/07/11 09:09:34;;;;;;;22.58;9.95;;;;;;;-148.56;100.00;61375.16;5089854;28;20516;-33
2022/07/11 09:13:01;;;;;;;22.10;9.65;;;;;;;-148.56;100.00;61375.16;5090164;28;20027;-30
2022/07/11 09:16:31;;;;;;;27.52;9.77;;;;;;;-148.56;100.00;61375.16;5087848;28;20027;-29
2022/07/11 09:19:55;;;;;;;23.63;9.68;;;;;;;-148.56;100.00;61375.16;5089732;28;20023;-31
2022/07/11 09:27:02;;;;;;;22.40;8.73;;;;;;;-148.56;100.00;61375.16;5086057;28;20425;-29
2022/07/11 09:30:26;;;;;;;18.27;8.35;;;;;;;-148.56;100.00;61375.16;5069047;28;20047;-31
2022/07/11 09:34:01;;;;;;;21.05;9.40;;;;;;;-148.56;100.00;61375.16;5084073;28;20417;-31
2022/07/11 09:37:51;;;;;;;18.98;8.32;;;;;;;-148.56;100.00;61375.16;5079809;28;20389;-30
2022/07/11 09:41:15;;;;;;;19.30;8.52;;;;;;;-148.56;100.00;61375.16;5084436;28;20726;-33
2022/07/11 09:44:39;;;;;;;16.45;8.07;;;;;;;-148.56;100.00;61375.16;5081496;28;20035;-31
2022/07/11 09:48:07;;;;;;;20.63;8.02;;;;;;;-148.56;100.00;61375.16;5073168;28;20533;-30
2022/07/11 09:51:32;;;;;;;15.73;7.63;;;;;;;-148.56;100.00;61375.16;5082371;28;20028;-29
2022/07/11 09:54:57;;;;;;;15.68;7.38;;;;;;;-148.56;100.00;61375.16;5077917;28;20039;-29
2022/07/11 09:58:31;;;;;;;17.33;7.50;;;;;;;-148.56;100.00;61375.16;5080183;28;20540;-30
2022/07/11 10:01:57;;;;;;;15.45;7.05;;;;;;;-148.56;100.00;61375.16;5080686;28;20050;-32
2022/07/11 10:05:21;;;;;;;19.80;7.80;;;;;;;-148.56;100.00;61375.16;5061248;28;20032;-31
2022/07/11 10:08:45;;;;;;;15.75;6.78;;;;;;;-148.56;100.00;61375.16;5080315;28;20482;-31
2022/07/11 10:12:10;;;;;;;14.98;7.03;;;;;;;-148.56;100.00;61375.16;5085244;28;20127;-31
2022/07/11 10:15:34;;;;;;;16.17;6.68;;;;;;;-148.56;100.00;61375.16;5078581;28;20507;-28
2022/07/11 10:19:16;;;;;;;18.30;6.80;;;;;;;-148.56;100.00;61375.16;5084801;28;20756;-28
2022/07/11 10:22:59;;;;;;;12.97;6.43;;;;;;;-148.56;100.00;61375.16;5070466;28;20034;-30
2022/07/11 10:27:10;;;;;;;12.57;6.10;;;;;;;-148.56;100.00;61375.16;5087377;28;20382;-30
2022/07/11 10:30:44;;;;;;;19.77;6.28;;;;;;;-148.56;100.00;61375.16;5085206;28;20042;-28
2022/07/11 10:34:10;;;;;;;12.07;6.03;;;;;;;-148.56;100.00;61375.16;5080911;28;20059;-31
2022/07/11 10:37:47;;;;;;;12.95;5.63;;;;;;;-148.56;100.00;61375.16;5088238;28;20055;-30
2022/07/11 10:41:20;;;;;;;12.00;5.57;;;;;;;-148.56;100.00;61375.16;5083727;28;20077;-29
2022/07/11 10:44:48;;;;;;;9.75;4.80;;;;;;;-148.56;100.00;61375.16;5087853;28;20116;-29
2022/07/11 10:48:32;;;;;;;12.55;5.45;;;;;;;-148.56;100.00;61375.16;5084454;28;20032;-29
2022/07/11 10:52:02;;;;;;;13.10;5.68;;;;;;;-148.56;100.00;61375.16;5075848;28;20131;-30
2022/07/11 10:55:36;;;;;;;10.27;5.40;;;;;;;-148.56;100.00;61375.16;5085782;28;20050;-30
2022/07/11 10:59:19;;;;;;;10.07;5.35;;;;;;;-148.56;100.00;61375.16;5088774;28;20453;-31
2022/07/11 11:03:05;;;;;;;9.52;4.68;;;;;;;-148.56;100.00;61375.16;5079564;28;20051;-29
2022/07/11 11:06:57;;;;;;;9.32;4.63;;;;;;;-148.56;100.00;61375.16;5085819;28;20118;-27
2022/07/11 11:10:44;;;;;;;12.15;5.30;;;;;;;-148.56;100.00;61375.16;5091851;28;20035;-29
2022/07/11 11:14:21;;;;;;;9.25;4.65;;;;;;;-148.56;100.00;61375.16;5089759;28;20818;-27
2022/07/11 11:17:45;;;;;;;9.55;4.80;;;;;;;-148.56;100.00;61375.16;5090776;28;20106;-29
2022/07/11 11:21:17;;;;;;;9.40;4.35;;;;;;;-148.56;100.00;61375.16;5090124;28;20122;-30
2022/07/11 11:24:45;;;;;;;8.67;4.27;;;;;;;-148.56;100.00;61375.16;5083620;28;20027;-32
2022/07/11 11:28:35;;;;;;;9.10;4.20;;;;;;;-148.56;100.00;61375.16;5091164;28;20390;-30
2022/07/11 11:32:00;;;;;;;9.18;4.10;;;;;;;-148.56;100.00;61375.16;5090013;28;20031;-34
2022/07/11 11:35:24;;;;;;;8.90;4.20;;;;;;;-148.56;100.00;61375.16;5091673;28;20869;-32
2022/07/11 11:38:48;;;;;;;8.02;3.90;;;;;;;-148.56;100.00;61375.16;5090937;28;20032;-33
2022/07/11 11:42:13;;;;;;;7.13;3.90;;;;;;;-148.56;100.00;61375.16;5079252;28;20028;-29
2022/07/11 11:45:48;;;;;;;7.50;3.70;;;;;;;-148.56;100.00;61375.16;5086537;28;20084;-34
2022/07/11 11:49:24;;;;;;;8.68;3.60;;;;;;;-148.56;100.00;61375.16;5090327;28;20035;-30
2022/07/11 11:52:48;;;;;;;6.18;3.53;;;;;;;-148.56;100.00;61375.16;5090216;28;20542;-33
2022/07/11 11:56:28;;;;;;;8.15;3.92;;;;;;;-148.56;100.00;61375.16;5091054;28;20031;-29
2022/07/11 11:59:53;;;;;;;6.47;3.53;;;;;;;-148.56;100.00;61375.16;5088152;28;20639;-29
2022/07/11 12:03:21;;;;;;;6.35;3.30;;;;;;;-148.56;100.00;61375.16;5077250;28;20144;-29
2022/07/11 12:06:52;;;;;;;7.05;3.33;;;;;;;-148.56;100.00;61375.16;5088315;28;20035;-29
2022/07/11 12:10:19;;;;;;;7.47;3.67;;;;;;;-148.56;100.00;61375.16;5089548;28;20487;-32
2022/07/11 12:13:43;;;;;;;5.68;2.70;;;;;;;-148.56;100.00;61375.16;5071813;28;20129;-30
2022/07/11 12:17:13;;;;;;;6.53;3.40;;;;;;;-148.56;100.00;61375.16;5089177;28;20043;-32
2022/07/11 12:20:37;;;;;;;5.55;3.22;;;;;;;-148.56;100.00;61375.16;5090683;28;20059;-30
2022/07/11 12:24:06;;;;;;;4.70;2.83;;;;;;;-148.56;100.00;61375.16;5088942;28;20481;-30
2022/07/11 12:27:33;;;;;;;4.70;3.00;;;;;;;-148.56;100.00;61375.16;5088026;28;20031;-30
2022/07/11 12:30:57;;;;;;;6.15;3.20;;;;;;;-148.56;100.00;61375.16;5085771;28;20031;-32
2022/07/11 12:34:27;;;;;;;6.45;3.20;;;;;;;-148.56;100.00;61375.16;5090072;28;20019;-29
2022/07/11 12:38:00;;;;;;;6.10;3.10;;;;;;;-148.56;100.00;61375.16;5090614;28;20028;-33
2022/07/11 12:41:24;;;;;;;4.63;2.67;;;;;;;-148.56;100.00;61375.16;5085306;28;20032;-31
2022/07/11 12:44:58;;;;;;;5.85;2.95;;;;;;;-148.56;100.00;61375.16;5089330;28;20034;-32
2022/07/11 12:48:22;;;;;;;4.97;2.80;;;;;;;-148.56;100.00;61375.16;5087712;28;20039;-32
2022/07/11 12:51:46;;;;;;;5.10;2.75;;;;;;;-148.56;100.00;61375.16;5071925;28;20058;-30
2022/07/11 12:55:20;;;;;;;4.90;2.83;;;;;;;-148.56;100.00;61375.16;5084570;28;20038;-30
2022/07/11 12:59:03;;;;;;;3.75;2.30;;;;;;;-148.56;100.00;61375.16;5088354;28;20020;-30
2022/07/11 13:02:27;;;;;;;4.57;2.70;;;;;;;-148.56;100.00;61375.16;5084835;28;20024;-30
2022/07/11 13:05:51;;;;;;;4.57;2.67;;;;;;;-148.56;100.00;61375.16;5087713;28;20085;-29
2022/07/11 13:09:21;;;;;;;4.55;2.70;;;;;;;-148.56;100.00;61375.16;5090388;28;20042;-30
2022/07/11 13:12:45;;;;;;;4.80;2.60;;;;;;;-148.56;100.00;61375.16;5089699;28;20525;-34
2022/07/11 13:16:10;;;;;;;6.13;2.72;;;;;;;-148.56;100.00;61375.16;5085741;28;20028;-31
2022/07/11 13:19:34;;;;;;;4.75;2.70;;;;;;;-148.56;100.00;61375.16;5086353;28;20024;-29
2022/07/11 13:22:58;;;;;;;4.63;2.60;;;;;;;-148.56;100.00;61375.16;5085395;28;20038;-29
2022/07/11 13:26:22;;;;;;;4.28;2.40;;;;;;;-148.56;100.00;61375.16;5090870;28;20081;-34
2022/07/11 13:29:46;;;;;;;4.35;2.50;;;;;;;-148.56;100.00;61375.16;5087436;28;20197;-31
2022/07/11 13:33:11;;;;;;;3.80;2.42;;;;;;;-148.56;100.00;61375.16;5085307;28;20024;-29
2022/07/11 13:36:34;;;;;;;3.83;2.28;;;;;;;-148.56;100.00;61375.16;5083843;28;20032;-31
2022/07/11 13:39:58;;;;;;;4.63;2.50;;;;;;;-148.56;100.00;61375.16;5089027;28;20028;-30
2022/07/11 13:43:22;;;;;;;3.65;2.10;;;;;;;-148.56;100.00;61375.16;5085496;28;20722;-34
2022/07/11 13:46:46;;;;;;;5.05;2.70;;;;;;;-148.56;100.00;61375.16;5070239;28;20112;-30
2022/07/11 13:50:10;;;;;;;4.45;2.38;;;;;;;-148.56;100.00;61375.16;5090528;28;20032;-32
2022/07/11 13:53:34;;;;;;;3.65;2.25;;;;;;;-148.56;100.00;61375.16;5089816;28;20024;-31
2022/07/11 13:56:58;;;;;;;3.60;2.15;;;;;;;-148.56;100.00;61375.16;5083817;28;20035;-31
2022/07/11 14:00:21;;;;;;;3.80;2.15;;;;;;;-148.56;100.00;61375.16;5088756;28;20062;-29
2022/07/11 14:03:45;;;;;;;3.55;2.10;;;;;;;-148.56;100.00;61375.16;5085833;28;20027;-28
2022/07/11 14:07:11;;;;;;;3.25;2.00;;;;;;;-148.56;100.00;61375.16;5085731;28;20055;-32
2022/07/11 14:10:35;;;;;;;3.53;2.10;;;;;;;-148.56;100.00;61375.16;5088914;28;20023;-32
2022/07/11 14:13:58;;;;;;;4.75;2.08;;;;;;;-148.56;100.00;61375.16;5088386;28;21044;-33
2022/07/11 14:17:25;;;;;;;3.40;1.95;;;;;;;-148.56;100.00;61375.16;5083041;28;20521;-31
2022/07/11 14:20:49;;;;;;;3.03;2.00;;;;;;;-148.56;100.00;61375.16;5084086;28;20020;-32
2022/07/11 14:24:13;;;;;;;2.78;1.80;;;;;;;-148.56;100.00;61375.16;5087036;28;20693;-30
2022/07/11 14:27:37;;;;;;;3.47;2.10;;;;;;;-148.56;100.00;61375.16;5088982;28;20505;-31
2022/07/11 14:31:03;;;;;;;2.38;1.85;;;;;;;-148.56;100.00;61375.16;5086803;28;20054;-31
2022/07/11 14:34:26;;;;;;;3.05;1.90;;;;;;;-148.56;100.00;61375.16;5085007;28;20118;-30
2022/07/11 14:37:50;;;;;;;2.75;2.00;;;;;;;-148.56;100.00;61375.16;5085834;28;21259;-29
2022/07/11 14:41:17;;;;;;;2.80;1.90;;;;;;;-148.56;100.00;61375.16;5088104;28;20135;-32
2022/07/11 14:44:42;;;;;;;2.75;1.77;;;;;;;-148.56;100.00;61375.16;5091555;28;20039;-30
2022/07/11 14:48:06;;;;;;;3.28;2.00;;;;;;;-148.56;100.00;61375.16;5087894;28;20096;-30
2022/07/11 14:51:30;;;;;;;2.45;1.70;;;;;;;-148.56;100.00;61375.16;5089829;28;20024;-30
2022/07/11 14:54:54;;;;;;;4.25;2.15;;;;;;;-148.56;100.00;61375.16;5090938;28;20110;-30
2022/07/11 14:58:18;;;;;;;2.80;1.92;;;;;;;-148.56;100.00;61375.16;5092919;28;20062;-33
2022/07/11 15:01:41;;;;;;;3.35;1.73;;;;;;;-148.56;100.00;61375.16;5093972;28;20055;-30
2022/07/11 15:05:05;;;;;;;4.38;1.80;;;;;;;-148.56;100.00;61375.16;5086039;28;20071;-31
2022/07/11 15:12:21;;;;;;;2.50;1.60;;;;;;;-148.56;100.00;61375.16;5093812;28;20035;-28
2022/07/11 15:15:45;;;;;;;2.22;1.67;;;;;;;-148.56;100.00;61375.16;5090729;28;20055;-30
2022/07/11 15:19:08;;;;;;;2.58;1.70;;;;;;;-148.56;100.00;61375.16;5087095;28;20027;-31
2022/07/11 15:22:32;;;;;;;2.58;1.80;;;;;;;-148.56;100.00;61375.16;5089302;28;20027;-30
2022/07/11 15:25:56;;;;;;;2.72;1.73;;;;;;;-148.56;100.00;61375.16;5092703;28;20036;-31
2022/07/11 15:29:20;;;;;;;2.58;1.50;;;;;;;-148.56;100.00;61375.16;5091196;28;20024;-29
2022/07/11 15:32:44;;;;;;;3.22;1.52;;;;;;;-148.56;100.00;61375.16;5086905;28;20694;-29
2022/07/11 15:36:08;;;;;;;3.40;1.42;;;;;;;-148.56;100.00;61375.16;5090416;28;20146;-29
2022/07/11 15:39:32;;;;;;;2.13;1.48;;;;;;;-148.56;100.00;61375.16;5091334;28;20062;-31
2022/07/11 15:42:56;;;;;;;2.83;1.50;;;;;;;-148.56;100.00;61375.16;5092748;28;20597;-29
2022/07/11 15:46:19;;;;;;;1.45;1.10;;;;;;;-148.56;100.00;61375.16;5091122;28;20032;-29